METAR v bližini

 

LJLJ - Ljubljana/Brnik, Slovenia
Oddaljenost od postaje: W 41km
Podatki zajeti: 16/12/2019 03:00
Plitva megla, Pretežno oblačno
Plitva megla, Pretežno oblačno
 Veter iz smeri NW
Veter: NW 7 km/h
Temperatura: 2°C
Občutek mraza zaradi vetra: 0°C
Rosišče: 1°C
Vlažnost: 93%
Tlak: 1019 hPa
Stanje: Plitva megla
Oblačnost: Pretežno oblačno
Vidljivost: 10 km
Podrobnosti o oblakih: Delno oblačno 1219 m
Pretežno oblačno 2134 m
2019/12/16 02:00 LJLJ 160200Z 31004KT 9999 MIFG SCT040 BKN070 02/01 Q1019 NOSIG
LJMB - Maribor, Slovenia
Oddaljenost od postaje: NE 63km
Podatki zajeti: 16/12/2019 03:00
Jasno
Jasno
 Veter iz smeri NNW
Veter: NNW 7 km/h
Temperatura: 0°C
Občutek mraza zaradi vetra: -3°C
Rosišče: -1°C
Vlažnost: 93%
Tlak: 1017 hPa
Oblačnost: Jasno
Vidljivost: 9 km
2019/12/16 02:00 LJMB 160200Z AUTO 34004KT 9000 NCD M00/M01 Q1017
 
LJPZ - Portoroz, Slovenia
Oddaljenost od postaje: SW 130km
Podatki zajeti: 16/12/2019 03:00
Oblačno
Oblačno
 Veter iz smeri spremenljiv
Veter: spremenljiv 4 km/h
Temperatura: 10°C
Rosišče: 9°C
Vlažnost: 94%
Tlak: 1020 hPa
Oblačnost: Oblačno
Vidljivost: 10 km
Podrobnosti o oblakih: Pretežno oblačno 1250 m
Pretežno oblačno 1676 m
Oblačno 2286 m
2019/12/16 02:00 LJPZ 160200Z AUTO VRB02KT 9999 BKN041/// BKN055/// OVC075/// 10/09 Q1020
LJCE - Cerklje, Slovenia
Oddaljenost od postaje: ESE 49km
Podatki zajeti: 16/12/2019 03:00
Delno oblačno
Delno oblačno
 Veter iz smeri spremenljiv
Veter: spremenljiv 6 km/h
Temperatura: 5°C
Rosišče: 4°C
Vlažnost: 93%
Tlak: 1018 hPa
Oblačnost: Delno oblačno
Vidljivost: 10 km
2019/12/16 02:00 LJCE 160200Z AUTO VRB03KT 9999 NSC 05/04 Q1018
 
LDZA - Zagreb/Pleso, Croatia
Oddaljenost od postaje: ESE 96km
Podatki zajeti: 16/12/2019 03:00
Jasno
Jasno
 Veter iz smeri W
Veter: W 6 km/h
Temperatura: 9°C
Rosišče: 6°C
Vlažnost: 82%
Tlak: 1018 hPa
Stanje: Jasno
Vidljivost: večja od 10 km
2019/12/16 02:00 LDZA 160200Z 28003KT 230V340 CAVOK 09/06 Q1018 NOSIG
LDRI - Rijeka/Omisalj, Croatia
Oddaljenost od postaje: SSW 109km
Podatki zajeti: 16/12/2019 03:00
Oblačno
Oblačno
 Veter iz smeri SSE
Veter: SSE 17 km/h
Temperatura: 14°C
Rosišče: 11°C
Vlažnost: 82%
Tlak: 1020 hPa
Oblačnost: Oblačno
Vidljivost: 10 km
Podrobnosti o oblakih: Delno oblačno 610 m
Oblačno 1219 m
2019/12/16 02:00 LDRI 160200Z 15009KT 9999 SCT020 OVC040 14/11 Q1020
 
LDPL - Pula, Croatia
Oddaljenost od postaje: SSW 164km
Podatki zajeti: 16/12/2019 03:00
Jasno
Jasno
 Veter iz smeri calm
Veter: Calm
Temperatura: 9°C
Rosišče: 9°C
Vlažnost: 100%
Tlak: 1020 hPa
Stanje: Jasno
Vidljivost: večja od 10 km
2019/12/16 02:00 LDPL 160200Z 00000KT CAVOK 09/09 Q1020
LOWK - Klagenfurt(Civ/M, Austria
Oddaljenost od postaje: NW 76km
Podatki zajeti: 16/12/2019 03:20
Freezing patches of, Megla, Oblačno
Freezing patches of, Megla, Oblačno
 Veter iz smeri NNW
Veter: NNW 6 km/h
Temperatura: -5°C
Rosišče: -5°C
Vlažnost: 100%
Tlak: 1020 hPa
Stanje: Freezing patches of, Megla
Oblačnost: Oblačno
Vidljivost: 1 km
Podrobnosti o oblakih: Oblačno 61 m
2019/12/16 02:20 LOWK 160220Z AUTO 33003KT 1100 R10/P1500U R28/0900N FZBCFG OVC002 M05/M05 Q1020
 
LOWG - Graz (mil/Civ), Austria
Oddaljenost od postaje: NNE 100km
Podatki zajeti: 16/12/2019 03:20
Delno oblačno
Delno oblačno
 Veter iz smeri S
Veter: S 4 km/h
Temperatura: -3°C
Rosišče: -3°C
Vlažnost: 100%
Tlak: 1017 hPa
Oblačnost: Delno oblačno
Vidljivost: 6 km
2019/12/16 02:20 LOWG 160220Z AUTO 18002KT 6000 NSC M03/M03 Q1017
LOAN - Wr.neustadt East, Austria
Oddaljenost od postaje: NNE 212km
Podatki zajeti: 15/12/2019 16:00
Ni posodobljen
Pretežno oblačno
Pretežno oblačno
 Veter iz smeri ENE
Veter: ENE 9 km/h
Oblačnost: Pretežno oblačno
Podrobnosti o oblakih: Delno oblačno 3048 m
Pretežno oblačno 9144 m
2019/12/15 15:00 LOAN 151500Z 06005KT 45KM SCT100AC BKN300CI
 
LIPQ - Ronchi Legionari, Italy
Oddaljenost od postaje: SW 35km
Podatki zajeti: 16/12/2019 03:20
Oblačno
Oblačno
 Veter iz smeri NNE
Veter: NNE 2 km/h
Temperatura: 7°C
Rosišče: 7°C
Vlažnost: 100%
Tlak: 1020 hPa
Oblačnost: Oblačno
Vidljivost: 10 km
Podrobnosti o oblakih: Rahlo oblačno 1463 m
Oblačno 2286 m
2019/12/16 02:20 LIPQ 160220Z AUTO 03001KT 9999 FEW048/// OVC075/// 07/07 Q1020
LIVT - Trieste, Italy
Oddaljenost od postaje: WSW 109km
Podatki zajeti: 15/12/2019 18:55
Ni posodobljen
Oblačno
Oblačno
 Veter iz smeri spremenljiv
Veter: spremenljiv 0 km/h
Temperatura: 13°C
Rosišče: 12°C
Vlažnost: 94%
Tlak: 1016 hPa
Oblačnost: Oblačno
Vidljivost: 10 km
Podrobnosti o oblakih: Rahlo oblačno 518 m
Oblačno 1219 m
2019/12/15 17:55 LIVT 151755Z /////KT 9999 FEW017 OVC040 13/12 Q1016 RMK OVC QUK / QUL / VIS MAR 20 KM VIS MIN 9999
 
LIVO - Tarvisio, Italy
Oddaljenost od postaje: NNW 49km
Podatki zajeti: 15/12/2019 18:55
Ni posodobljen
Delno oblačno
Delno oblačno
 Veter iz smeri WNW
Veter: WNW 9 km/h
Temperatura: 2°C
Občutek mraza zaradi vetra: -1°C
Rosišče: 1°C
Vlažnost: 93%
Tlak: 1014 hPa
Oblačnost: Delno oblačno
Vidljivost: 10 km
Podrobnosti o oblakih: Delno oblačno 762 m
2019/12/15 17:55 LIVO 151755Z 29005KT 9999 SCT025 02/01 Q1014 RMK SCT VIS MIN 9999
LIPZ - Venezia/Tessera, Italy
Oddaljenost od postaje: WSW 217km
Podatki zajeti: 16/12/2019 03:20
Meglica, Delno oblačno
Meglica, Delno oblačno
 Veter iz smeri NNW
Veter: NNW 7 km/h
Temperatura: 6°C
Občutek mraza zaradi vetra: 4°C
Rosišče: 4°C
Vlažnost: 87%
Tlak: 1020 hPa
Stanje: Meglica
Oblačnost: Delno oblačno
Vidljivost: 5 km
Podrobnosti o oblakih: Delno oblačno 1829 m
2019/12/16 02:20 LIPZ 160220Z 33004KT 240V350 5000 BR SCT060 06/04 Q1020 NOSIG
 
LHSM - Balaton, Hungary
Oddaljenost od postaje: ENE 177km
Podatki zajeti: 16/12/2019 02:45
Jasno
Jasno
 Veter iz smeri SSE
Veter: SSE 9 km/h
Temperatura: 2°C
Občutek mraza zaradi vetra: -1°C
Rosišče: 2°C
Vlažnost: 100%
Tlak: 1017 hPa
Oblačnost: Jasno
Vidljivost: 6 km
2019/12/16 01:45 LHSM 160145Z AUTO 15005KT 6000 NCD 02/02 Q1017